Time;durP1;ratioP1;P1;durP2;ratioP2;P2;SDS_P1;SDS_P2;PMS_P1;PMS_P2;Temp;Humidity;BMP_temperature;BMP_pressure;BME280_temperature;BME280_humidity;BME280_pressure;Samples;Min_cycle;Max_cycle;Signal;HPM_P1;HPM_P2
2023/02/07 00:00:43;;;;;;;38.47;15.65;;;-4.00;99.90;;;;;;4152553;28;20225;-76
2023/02/07 00:02:46;;;;;;;43.50;17.15;;;-4.00;99.90;;;;;;4152657;28;20214;-77
2023/02/07 00:04:48;;;;;;;36.20;15.60;;;-4.00;99.90;;;;;;4153215;28;20755;-77
2023/02/07 00:06:50;;;;;;;37.90;15.05;;;-4.00;99.90;;;;;;4152845;28;20218;-77
2023/02/07 00:08:53;;;;;;;39.65;16.10;;;-4.10;99.90;;;;;;4154164;28;20262;-77
2023/02/07 00:10:55;;;;;;;38.42;15.98;;;-4.00;99.90;;;;;;4169895;28;20198;-77
2023/02/07 00:12:57;;;;;;;39.72;16.15;;;-3.50;99.90;;;;;;4152199;28;20203;-77
2023/02/07 00:15:00;;;;;;;36.45;15.15;;;-4.10;99.90;;;;;;4159154;28;20211;-77
2023/02/07 00:17:02;;;;;;;42.53;16.08;;;-4.10;99.90;;;;;;4151640;28;20665;-77
2023/02/07 00:19:04;;;;;;;37.58;15.70;;;-4.10;99.90;;;;;;4154357;28;20235;-77
2023/02/07 00:21:09;;;;;;;37.92;14.68;;;-4.10;99.90;;;;;;4155131;28;20290;-77
2023/02/07 00:23:13;;;;;;;40.25;15.73;;;-4.10;99.90;;;;;;4154937;28;20213;-77
2023/02/07 00:25:15;;;;;;;40.88;15.35;;;-2.90;99.90;;;;;;4167535;28;20252;-75
2023/02/07 00:27:16;;;;;;;39.05;15.93;;;-4.20;99.90;;;;;;4157077;28;20318;-75
2023/02/07 00:29:19;;;;;;;40.08;16.60;;;-4.20;99.90;;;;;;4155639;28;20254;-75
2023/02/07 00:31:24;;;;;;;42.85;16.13;;;-4.20;99.90;;;;;;4151665;28;20215;-76
2023/02/07 00:33:26;;;;;;;39.65;15.50;;;-4.20;99.90;;;;;;4166793;28;20221;-75
2023/02/07 00:35:28;;;;;;;33.22;14.07;;;-4.20;99.90;;;;;;4148919;28;20682;-76
2023/02/07 00:37:30;;;;;;;33.13;14.55;;;-4.20;99.90;;;;;;4149554;28;20204;-76
2023/02/07 00:39:32;;;;;;;38.92;14.25;;;-4.30;99.90;;;;;;4168180;28;20264;-76
2023/02/07 00:41:34;;;;;;;33.80;14.15;;;-4.30;99.90;;;;;;4150991;28;20229;-76
2023/02/07 00:43:37;;;;;;;32.67;14.32;;;-4.30;99.90;;;;;;4153589;28;20211;-76
2023/02/07 00:45:38;;;;;;;39.13;14.82;;;-4.30;99.90;;;;;;4151794;28;20289;-76
2023/02/07 00:47:42;;;;;;;32.33;13.75;;;-4.30;99.90;;;;;;4170701;28;20650;-76
2023/02/07 00:49:44;;;;;;;33.63;13.77;;;-4.40;99.90;;;;;;4159050;28;20223;-76
2023/02/07 00:51:46;;;;;;;36.30;14.30;;;-4.40;99.90;;;;;;4158889;28;20210;-76
2023/02/07 00:53:48;;;;;;;32.85;13.75;;;-4.40;99.90;;;;;;4166914;28;20617;-75
2023/02/07 00:55:50;;;;;;;37.33;14.30;;;-4.40;99.90;;;;;;4152172;28;20661;-76
2023/02/07 00:57:52;;;;;;;31.42;13.65;;;-4.50;99.90;;;;;;4154171;28;20294;-77
2023/02/07 00:59:54;;;;;;;36.10;13.85;;;-4.50;99.90;;;;;;4151387;28;20223;-76
2023/02/07 01:01:56;;;;;;;35.35;13.65;;;-4.50;99.90;;;;;;4158351;28;20230;-75
2023/02/07 01:03:59;;;;;;;36.40;14.30;;;-4.50;99.90;;;;;;4152738;28;20268;-75
2023/02/07 01:06:01;;;;;;;31.52;13.18;;;-4.50;99.90;;;;;;4155487;28;20940;-75
2023/02/07 01:08:04;;;;;;;35.88;14.20;;;-4.50;99.90;;;;;;4161412;28;20201;-74
2023/02/07 01:10:06;;;;;;;36.72;15.38;;;-4.50;99.90;;;;;;4152698;28;20253;-75
2023/02/07 01:12:08;;;;;;;37.63;14.80;;;-4.60;99.90;;;;;;4159594;28;20610;-76
2023/02/07 01:14:10;;;;;;;36.58;14.90;;;-4.60;99.90;;;;;;4157257;28;20750;-74
2023/02/07 01:16:20;;;;;;;36.28;14.05;;;-4.60;99.90;;;;;;4151516;28;20232;-74
2023/02/07 01:18:22;;;;;;;38.78;14.10;;;-4.60;99.90;;;;;;4158741;28;20226;-74
2023/02/07 01:20:25;;;;;;;32.65;14.05;;;-4.60;99.90;;;;;;4154988;28;20307;-75
2023/02/07 01:22:27;;;;;;;32.97;13.63;;;-4.60;99.90;;;;;;4155111;28;20631;-75
2023/02/07 01:24:30;;;;;;;33.97;14.32;;;-4.70;99.90;;;;;;4155424;28;20265;-76
2023/02/07 01:26:32;;;;;;;30.63;12.88;;;-4.70;99.90;;;;;;4154163;28;20770;-76
2023/02/07 01:28:33;;;;;;;35.70;14.23;;;-4.70;99.90;;;;;;4154468;28;20211;-75
2023/02/07 01:30:38;;;;;;;30.40;13.63;;;-4.70;99.90;;;;;;4155168;28;20224;-76
2023/02/07 01:32:40;;;;;;;35.97;15.30;;;-4.70;99.90;;;;;;4154047;28;20215;-76
2023/02/07 01:34:42;;;;;;;34.15;13.43;;;-4.70;99.90;;;;;;4157638;28;20216;-76
2023/02/07 01:36:45;;;;;;;33.78;13.82;;;-4.70;99.90;;;;;;4157650;28;20209;-76
2023/02/07 01:38:47;;;;;;;31.77;14.18;;;-4.70;99.90;;;;;;4153015;28;20589;-76
2023/02/07 01:40:49;;;;;;;39.05;13.95;;;-4.80;99.90;;;;;;4155252;28;20453;-76
2023/02/07 01:42:51;;;;;;;34.35;14.20;;;-4.80;99.90;;;;;;4154778;28;20337;-75
2023/02/07 01:45:03;;;;;;;28.92;12.55;;;-4.80;99.90;;;;;;4155249;28;20206;-75
2023/02/07 01:47:05;;;;;;;29.50;13.48;;;-4.80;99.90;;;;;;4153620;28;20659;-75
2023/02/07 01:49:11;;;;;;;34.08;13.65;;;-5.00;99.90;;;;;;4156790;28;20231;-75
2023/02/07 01:51:13;;;;;;;33.13;13.35;;;-4.80;99.90;;;;;;4154512;28;20694;-75
2023/02/07 01:53:19;;;;;;;32.50;13.27;;;-4.90;99.90;;;;;;4152256;28;20311;-76
2023/02/07 01:55:26;;;;;;;30.92;12.55;;;-4.80;99.90;;;;;;4155858;28;20207;-75
2023/02/07 01:57:28;;;;;;;31.02;12.98;;;-4.90;99.90;;;;;;4159379;28;20298;-75
2023/02/07 01:59:34;;;;;;;32.25;13.18;;;-4.90;99.90;;;;;;4155702;28;20241;-76
2023/02/07 02:01:36;;;;;;;32.83;13.52;;;-4.90;99.90;;;;;;4156305;28;20231;-76
2023/02/07 02:03:44;;;;;;;29.95;12.55;;;-4.90;99.90;;;;;;4151025;28;20243;-76
2023/02/07 02:05:49;;;;;;;33.03;13.85;;;-5.00;99.90;;;;;;4155416;28;20243;-76
2023/02/07 02:07:51;;;;;;;29.48;13.18;;;-5.00;99.90;;;;;;4153815;28;20248;-76
2023/02/07 02:09:54;;;;;;;33.83;13.18;;;-5.00;99.90;;;;;;4155987;28;20242;-75
2023/02/07 02:12:19;;;;;;;36.60;13.93;;;-5.00;99.90;;;;;;4158571;28;20612;-76
2023/02/07 02:14:36;;;;;;;34.45;12.88;;;-5.00;99.90;;;;;;4158046;28;20206;-75
2023/02/07 02:16:44;;;;;;;31.45;12.82;;;-5.00;99.90;;;;;;4155822;28;20252;-75
2023/02/07 02:19:02;;;;;;;30.73;12.60;;;-5.10;99.90;;;;;;4155302;28;20304;-75
2023/02/07 02:21:57;;;;;;;32.05;12.68;;;-5.10;99.90;;;;;;4155462;28;20664;-75
2023/02/07 02:24:33;;;;;;;31.48;13.10;;;-5.10;99.90;;;;;;4122668;28;20243;-75
2023/02/07 02:26:54;;;;;;;29.50;12.25;;;-5.10;99.90;;;;;;4123860;28;20669;-76
2023/02/07 02:29:28;;;;;;;31.00;12.70;;;-5.20;99.90;;;;;;4154286;28;20615;-76
2023/02/07 02:32:14;;;;;;;32.03;12.20;;;-5.20;99.90;;;;;;4154804;28;20246;-75
2023/02/07 02:34:23;;;;;;;30.33;12.07;;;-5.20;99.90;;;;;;4116465;28;20220;-75
2023/02/07 02:36:34;;;;;;;34.63;14.23;;;-5.20;99.90;;;;;;4161799;28;20211;-75
2023/02/07 02:38:43;;;;;;;33.70;13.27;;;-4.80;99.90;;;;;;4160679;28;20228;-75
2023/02/07 02:40:52;;;;;;;32.75;13.52;;;-5.30;99.90;;;;;;4153038;28;20211;-76
2023/02/07 02:43:00;;;;;;;33.95;13.38;;;-5.30;99.90;;;;;;4153826;28;20224;-75
2023/02/07 02:45:08;;;;;;;33.80;14.45;;;-5.30;99.90;;;;;;4157110;28;20881;-75
2023/02/07 02:47:11;;;;;;;36.92;14.70;;;-5.30;99.90;;;;;;4154381;28;20209;-75
2023/02/07 02:49:15;;;;;;;39.35;15.27;;;-5.30;99.90;;;;;;4157771;28;20233;-75
2023/02/07 02:51:19;;;;;;;38.88;15.32;;;-5.30;99.90;;;;;;4155350;28;20231;-76
2023/02/07 02:53:21;;;;;;;33.95;14.73;;;-5.30;99.90;;;;;;4148917;28;20239;-77
2023/02/07 02:55:43;;;;;;;32.97;13.27;;;-4.20;99.90;;;;;;4152174;28;20305;-77
2023/02/07 02:57:57;;;;;;;32.20;13.40;;;-5.40;99.90;;;;;;4156053;28;20610;-77
2023/02/07 03:00:24;;;;;;;31.00;13.68;;;-5.40;99.90;;;;;;4153678;28;20341;-76
2023/02/07 03:02:38;;;;;;;32.33;11.93;;;-5.40;99.90;;;;;;4141736;28;20238;-77
2023/02/07 03:05:03;;;;;;;29.23;11.85;;;-5.40;99.90;;;;;;4156303;28;20268;-77
2023/02/07 03:07:24;;;;;;;29.27;12.18;;;-5.50;99.90;;;;;;4155205;28;20217;-77
2023/02/07 03:09:37;;;;;;;32.78;13.63;;;-5.50;99.90;;;;;;4154659;28;20254;-77
2023/02/07 03:11:50;;;;;;;29.95;12.18;;;-5.50;99.90;;;;;;4159435;28;20207;-77
2023/02/07 03:14:02;;;;;;;28.80;12.30;;;-5.50;99.90;;;;;;4167800;28;20203;-77
2023/02/07 03:16:12;;;;;;;31.77;12.48;;;-5.50;99.90;;;;;;4152552;28;20217;-76
2023/02/07 03:18:18;;;;;;;30.45;12.45;;;-5.50;99.90;;;;;;4155607;28;20763;-77
2023/02/07 03:20:23;;;;;;;30.60;12.40;;;-5.50;99.90;;;;;;4153466;28;20776;-77
2023/02/07 03:22:29;;;;;;;32.13;13.38;;;-5.60;99.90;;;;;;4151574;28;20792;-77
2023/02/07 03:24:33;;;;;;;30.50;12.77;;;-5.60;99.90;;;;;;4153452;28;20225;-76
2023/02/07 03:26:35;;;;;;;31.00;13.18;;;-5.60;99.90;;;;;;4155046;28;20757;-77
2023/02/07 03:28:41;;;;;;;29.83;11.75;;;-5.60;99.90;;;;;;4152207;28;20209;-76
2023/02/07 03:30:49;;;;;;;33.70;14.48;;;-5.50;99.90;;;;;;4155126;28;20206;-77
2023/02/07 03:32:54;;;;;;;30.05;12.55;;;-5.60;99.90;;;;;;4150491;28;20215;-77
2023/02/07 03:35:00;;;;;;;35.97;14.40;;;-5.60;99.90;;;;;;4150743;28;20212;-77
2023/02/07 03:37:09;;;;;;;34.20;13.93;;;-5.70;99.90;;;;;;4156589;28;20233;-76
2023/02/07 03:39:12;;;;;;;35.65;14.13;;;-5.70;99.90;;;;;;4153883;28;20787;-76
2023/02/07 03:41:21;;;;;;;30.25;12.55;;;-5.50;99.90;;;;;;4157026;28;20217;-77
2023/02/07 03:43:28;;;;;;;32.50;13.00;;;-5.10;99.90;;;;;;4153762;28;20973;-76
2023/02/07 03:45:30;;;;;;;29.83;12.27;;;-5.10;99.90;;;;;;4152524;28;20288;-77
2023/02/07 03:47:32;;;;;;;31.58;12.77;;;-5.60;99.90;;;;;;4157481;28;20659;-77
2023/02/07 03:49:34;;;;;;;39.65;15.10;;;-5.60;99.90;;;;;;4153942;28;20358;-77
2023/02/07 03:51:36;;;;;;;30.30;12.60;;;-5.60;99.90;;;;;;4153023;28;20208;-77
2023/02/07 03:53:38;;;;;;;33.90;14.93;;;-5.60;99.90;;;;;;4151436;28;20218;-76
2023/02/07 03:55:42;;;;;;;34.58;14.02;;;-5.70;99.90;;;;;;4153434;28;20926;-76
2023/02/07 03:57:44;;;;;;;31.80;13.88;;;-5.70;99.90;;;;;;4155137;28;20624;-77
2023/02/07 03:59:45;;;;;;;34.80;13.95;;;-5.70;99.90;;;;;;4151858;28;20306;-77
2023/02/07 04:01:48;;;;;;;35.45;13.93;;;-5.70;99.90;;;;;;4152135;28;20212;-76
2023/02/07 04:03:50;;;;;;;32.35;12.55;;;-5.70;99.90;;;;;;4151020;28;20246;-77
2023/02/07 04:05:52;;;;;;;31.85;13.57;;;-5.70;99.90;;;;;;4151844;28;20267;-77
2023/02/07 04:07:54;;;;;;;32.03;12.50;;;-5.80;99.90;;;;;;4154418;28;20229;-77
2023/02/07 04:09:56;;;;;;;35.03;13.25;;;-5.80;99.90;;;;;;4150518;28;20335;-77
2023/02/07 04:11:59;;;;;;;38.47;14.02;;;-5.80;99.90;;;;;;4155194;28;20209;-77
2023/02/07 04:14:01;;;;;;;34.70;13.70;;;-5.80;99.90;;;;;;4155209;28;20212;-77
2023/02/07 04:16:05;;;;;;;33.95;13.88;;;-5.80;99.90;;;;;;4159934;28;20794;-77
2023/02/07 04:18:07;;;;;;;34.20;14.77;;;-5.80;99.90;;;;;;4151824;28;20212;-77
2023/02/07 04:20:10;;;;;;;36.53;14.10;;;-5.80;99.90;;;;;;4152107;28;20217;-77
2023/02/07 04:22:12;;;;;;;35.83;14.30;;;-5.80;99.90;;;;;;4153340;28;20238;-76
2023/02/07 04:24:14;;;;;;;37.85;14.63;;;-5.80;99.90;;;;;;4156550;28;20232;-77
2023/02/07 04:26:16;;;;;;;35.70;14.70;;;-5.80;99.90;;;;;;4170202;28;20255;-77
2023/02/07 04:28:19;;;;;;;35.08;14.57;;;-5.80;99.90;;;;;;4152628;28;20233;-77
2023/02/07 04:30:21;;;;;;;37.17;14.25;;;-5.80;99.90;;;;;;4157079;28;20278;-77
2023/02/07 04:32:23;;;;;;;37.78;14.50;;;-5.80;99.90;;;;;;4156561;28;20667;-77
2023/02/07 04:34:25;;;;;;;33.08;14.52;;;-5.80;99.90;;;;;;4155529;28;20216;-77
2023/02/07 04:36:29;;;;;;;37.70;14.65;;;-5.80;99.90;;;;;;4159870;28;20711;-77
2023/02/07 04:38:31;;;;;;;36.22;15.18;;;-5.80;99.90;;;;;;4153989;28;20259;-77
2023/02/07 04:40:33;;;;;;;39.83;16.55;;;-5.40;99.90;;;;;;4152488;28;20299;-77
2023/02/07 04:42:35;;;;;;;42.10;16.95;;;-5.80;99.90;;;;;;4155784;28;20307;-77
2023/02/07 04:44:39;;;;;;;38.65;15.38;;;-5.80;99.90;;;;;;4173623;28;20219;-77
2023/02/07 04:46:41;;;;;;;35.75;14.70;;;-5.90;99.90;;;;;;4153738;28;20208;-77
2023/02/07 04:48:43;;;;;;;35.90;14.60;;;-5.90;99.90;;;;;;4158624;28;20213;-76
2023/02/07 04:50:45;;;;;;;38.30;15.13;;;-5.80;99.90;;;;;;4159475;28;20271;-80
2023/02/07 04:52:47;;;;;;;37.85;15.15;;;-5.90;99.90;;;;;;4162271;28;20645;-76
2023/02/07 04:54:49;;;;;;;38.28;15.50;;;-5.90;99.90;;;;;;4160660;28;20208;-77
2023/02/07 04:56:51;;;;;;;39.60;15.15;;;-5.80;99.90;;;;;;4152667;28;20231;-78
2023/02/07 04:58:53;;;;;;;39.40;16.13;;;-5.80;99.90;;;;;;4159624;28;20246;-78
2023/02/07 05:00:57;;;;;;;40.70;15.38;;;-5.90;99.90;;;;;;4158284;28;20211;-78
2023/02/07 05:02:59;;;;;;;37.45;14.35;;;-5.90;99.90;;;;;;4158557;28;20827;-78
2023/02/07 05:05:01;;;;;;;41.20;15.52;;;-5.90;99.90;;;;;;4160974;28;20214;-78
2023/02/07 05:07:03;;;;;;;43.13;15.85;;;-5.90;99.90;;;;;;4173349;28;20224;-78
2023/02/07 05:09:05;;;;;;;43.60;15.73;;;-5.90;99.90;;;;;;4159280;28;20282;-78
2023/02/07 05:11:07;;;;;;;39.20;15.63;;;-5.90;99.90;;;;;;4153670;28;20215;-78
2023/02/07 05:13:09;;;;;;;43.65;15.73;;;-5.90;99.90;;;;;;4170750;28;20231;-78
2023/02/07 05:15:11;;;;;;;38.90;15.63;;;-5.90;99.90;;;;;;4156268;28;20264;-78
2023/02/07 05:17:14;;;;;;;42.72;15.90;;;-5.80;99.90;;;;;;4154251;28;20638;-78
2023/02/07 05:19:16;;;;;;;42.38;16.48;;;-5.00;99.90;;;;;;4154928;28;20468;-77
2023/02/07 05:21:18;;;;;;;49.33;19.50;;;-5.20;99.90;;;;;;4152445;28;20267;-77
2023/02/07 05:23:20;;;;;;;51.88;19.48;;;-5.80;99.90;;;;;;4155639;28;20264;-77
2023/02/07 05:25:22;;;;;;;47.97;18.70;;;-5.70;99.90;;;;;;4156501;28;20200;-77
2023/02/07 05:27:24;;;;;;;43.63;17.08;;;-5.70;99.90;;;;;;4152951;28;20670;-77
2023/02/07 05:29:26;;;;;;;46.38;17.48;;;-5.70;99.90;;;;;;4156272;28;20278;-77
2023/02/07 05:33:45;;;;;;;49.63;17.88;;;-5.60;99.90;;;;;;4167603;28;20294;-78
2023/02/07 05:35:47;;;;;;;43.40;17.38;;;-5.60;99.90;;;;;;4165022;28;20224;-78
2023/02/07 05:37:49;;;;;;;45.72;17.00;;;-5.60;99.90;;;;;;4168264;28;20208;-78
2023/02/07 05:39:51;;;;;;;50.67;18.13;;;-5.60;99.90;;;;;;4168646;28;20236;-78
2023/02/07 05:41:53;;;;;;;52.30;17.88;;;-5.50;99.90;;;;;;4168160;28;20223;-78
2023/02/07 05:43:55;;;;;;;51.38;19.75;;;-5.50;99.90;;;;;;4182506;28;20219;-77
2023/02/07 05:46:00;;;;;;;61.63;19.33;;;-5.50;99.90;;;;;;4178176;28;20216;-78
2023/02/07 05:48:02;;;;;;;46.03;16.98;;;-5.50;99.90;;;;;;4160988;28;20944;-78
2023/02/07 05:50:06;;;;;;;62.40;18.52;;;-5.50;99.90;;;;;;4162196;28;20261;-78
2023/02/07 05:52:09;;;;;;;54.38;19.45;;;-5.40;99.90;;;;;;4158961;28;20685;-78
2023/02/07 05:54:11;;;;;;;55.72;18.25;;;-5.40;99.90;;;;;;4157406;28;20636;-78
2023/02/07 05:56:13;;;;;;;53.83;19.90;;;-5.40;99.90;;;;;;4157804;28;20244;-78
2023/02/07 05:58:15;;;;;;;51.63;20.20;;;-5.30;99.90;;;;;;4155466;28;20210;-78
2023/02/07 06:00:19;;;;;;;53.25;18.60;;;-5.30;99.90;;;;;;4157384;28;20249;-78
2023/02/07 06:02:21;;;;;;;51.53;19.65;;;-5.30;99.90;;;;;;4157122;28;20707;-76
2023/02/07 06:04:23;;;;;;;56.92;20.35;;;-5.30;99.90;;;;;;4156784;28;20259;-78
2023/02/07 06:06:27;;;;;;;55.78;19.08;;;-5.30;99.90;;;;;;4153960;28;20272;-78
2023/02/07 06:08:29;;;;;;;48.80;17.92;;;-5.30;99.90;;;;;;4156153;28;20214;-78
2023/02/07 06:10:31;;;;;;;50.33;19.23;;;-5.30;99.90;;;;;;4158562;28;20259;-78
2023/02/07 06:12:34;;;;;;;46.97;18.13;;;-5.30;99.90;;;;;;4159227;28;20206;-78
2023/02/07 06:14:36;;;;;;;47.60;18.52;;;-5.40;99.90;;;;;;4154437;28;20227;-78
2023/02/07 06:16:38;;;;;;;43.85;17.33;;;-5.30;99.90;;;;;;4154819;28;20221;-78
2023/02/07 06:18:40;;;;;;;54.00;19.20;;;-5.30;99.90;;;;;;4169944;28;20218;-78
2023/02/07 06:20:42;;;;;;;55.20;18.40;;;-5.30;99.90;;;;;;4167225;28;20669;-78
2023/02/07 06:22:45;;;;;;;58.03;21.08;;;-5.30;99.90;;;;;;4155711;28;20255;-78
2023/02/07 06:24:47;;;;;;;59.30;20.20;;;-5.30;99.90;;;;;;4154310;28;20796;-78
2023/02/07 06:26:49;;;;;;;52.45;18.75;;;-5.30;99.90;;;;;;4168432;28;20207;-78
2023/02/07 06:28:51;;;;;;;60.00;20.42;;;-5.40;99.90;;;;;;4168527;28;20559;-78
2023/02/07 06:30:53;;;;;;;45.20;17.60;;;-5.30;99.90;;;;;;4172994;28;20213;-78
2023/02/07 06:32:55;;;;;;;48.15;17.70;;;-5.20;99.90;;;;;;4161513;28;20259;-78
2023/02/07 06:34:57;;;;;;;57.05;19.05;;;-5.20;99.90;;;;;;4158837;28;20218;-78
2023/02/07 06:36:59;;;;;;;51.42;18.73;;;-5.20;99.90;;;;;;4153405;28;20260;-78
2023/02/07 06:39:02;;;;;;;56.28;18.95;;;-5.10;99.90;;;;;;4152911;28;20231;-78
2023/02/07 06:41:04;;;;;;;51.17;18.63;;;-5.10;99.90;;;;;;4158295;28;20204;-78
2023/02/07 06:43:06;;;;;;;50.92;18.17;;;-5.10;99.90;;;;;;4158147;28;20694;-78
2023/02/07 06:45:09;;;;;;;57.83;18.65;;;-5.10;99.90;;;;;;4161237;28;20207;-78
2023/02/07 06:47:11;;;;;;;59.78;19.55;;;-5.10;99.90;;;;;;4160808;28;20265;-78
2023/02/07 06:49:13;;;;;;;51.78;18.42;;;-5.00;99.90;;;;;;4171088;28;20268;-78
2023/02/07 06:51:15;;;;;;;50.67;18.67;;;-5.00;99.90;;;;;;4156797;28;20216;-77
2023/02/07 06:53:17;;;;;;;51.25;18.25;;;-5.00;99.90;;;;;;4152684;28;20226;-78
2023/02/07 06:55:20;;;;;;;55.97;18.17;;;-5.00;99.90;;;;;;4156125;28;20211;-78
2023/02/07 06:57:22;;;;;;;56.25;18.65;;;-4.40;99.90;;;;;;4152907;28;20203;-78
2023/02/07 06:59:24;;;;;;;58.47;19.88;;;-5.00;99.90;;;;;;4159192;28;20230;-78
2023/02/07 07:01:26;;;;;;;51.08;19.50;;;-5.00;99.90;;;;;;4172088;28;20203;-78
2023/02/07 07:03:28;;;;;;;64.85;20.38;;;-4.90;99.90;;;;;;4166134;28;20229;-78
2023/02/07 07:05:31;;;;;;;60.42;20.85;;;-4.90;99.90;;;;;;4157442;28;20210;-78
2023/02/07 07:07:33;;;;;;;56.47;20.33;;;-4.90;99.90;;;;;;4160428;28;20219;-78
2023/02/07 07:09:35;;;;;;;55.38;21.75;;;-4.90;99.90;;;;;;4163825;28;20277;-82
2023/02/07 07:11:42;;;;;;;64.78;22.60;;;-4.90;99.90;;;;;;4155995;28;20218;-77
2023/02/07 07:13:44;;;;;;;61.47;20.80;;;-4.90;99.90;;;;;;4152915;28;20226;-77
2023/02/07 07:15:47;;;;;;;58.45;21.05;;;-4.90;99.90;;;;;;4156617;28;20300;-77
2023/02/07 07:17:49;;;;;;;59.15;21.10;;;-4.90;99.90;;;;;;4156622;28;20607;-77
2023/02/07 07:19:51;;;;;;;54.63;19.95;;;-4.90;99.90;;;;;;4166554;28;20241;-77
2023/02/07 07:21:54;;;;;;;54.70;18.60;;;-4.80;99.90;;;;;;4156986;28;20222;-77
2023/02/07 07:23:56;;;;;;;52.83;18.80;;;-4.80;99.90;;;;;;4155661;28;20227;-77
2023/02/07 07:25:58;;;;;;;60.00;20.83;;;-4.80;99.90;;;;;;4157678;28;20231;-77
2023/02/07 07:28:01;;;;;;;57.83;19.95;;;-4.80;99.90;;;;;;4170085;28;20832;-77
2023/02/07 07:30:04;;;;;;;53.78;19.55;;;-4.70;99.90;;;;;;4157434;28;20221;-77
2023/02/07 07:32:06;;;;;;;61.53;20.65;;;-4.70;99.90;;;;;;4153862;28;20628;-77
2023/02/07 07:34:08;;;;;;;63.08;20.45;;;-4.70;99.90;;;;;;4154032;28;20210;-77
2023/02/07 07:36:10;;;;;;;62.42;20.63;;;-4.70;99.90;;;;;;4165908;28;20880;-77
2023/02/07 07:38:12;;;;;;;69.75;23.83;;;-4.70;99.90;;;;;;4153666;28;20214;-77
2023/02/07 07:40:14;;;;;;;63.45;22.17;;;-4.70;99.90;;;;;;4154555;28;20443;-77
2023/02/07 07:42:16;;;;;;;63.70;22.17;;;-4.60;99.90;;;;;;4154562;28;20260;-77
2023/02/07 07:44:19;;;;;;;63.63;21.10;;;-4.70;99.90;;;;;;4150850;28;20224;-77
2023/02/07 07:46:21;;;;;;;59.70;20.08;;;-4.60;99.90;;;;;;4152718;28;20191;-77
2023/02/07 07:48:24;;;;;;;63.25;21.83;;;-4.60;99.90;;;;;;4157229;28;20214;-77
2023/02/07 07:50:26;;;;;;;61.78;19.63;;;-4.60;99.90;;;;;;4154194;28;20241;-77
2023/02/07 07:52:28;;;;;;;58.38;19.95;;;-4.60;99.90;;;;;;4151940;28;20225;-77
2023/02/07 07:54:32;;;;;;;53.63;19.40;;;-4.60;99.90;;;;;;4157508;28;20214;-77
2023/02/07 07:56:34;;;;;;;67.10;19.60;;;-4.40;99.90;;;;;;4154606;28;20206;-76
2023/02/07 07:58:36;;;;;;;55.75;19.48;;;-4.50;99.90;;;;;;4154126;28;20207;-76
2023/02/07 08:00:39;;;;;;;62.63;18.83;;;-4.50;99.90;;;;;;4153230;28;20267;-76
2023/02/07 08:02:41;;;;;;;55.92;18.63;;;-4.40;99.90;;;;;;4152737;28;20211;-77
2023/02/07 08:04:43;;;;;;;58.25;19.50;;;-4.40;99.90;;;;;;4168923;28;20238;-77
2023/02/07 08:06:45;;;;;;;55.92;18.95;;;-4.40;99.90;;;;;;4154480;28;20207;-76
2023/02/07 08:08:48;;;;;;;55.90;19.23;;;-4.40;99.90;;;;;;4156071;28;20203;-76
2023/02/07 08:10:50;;;;;;;57.25;20.17;;;-4.40;99.90;;;;;;4151382;28;20212;-77
2023/02/07 08:12:52;;;;;;;57.40;19.25;;;-4.40;99.90;;;;;;4154558;28;20317;-77
2023/02/07 08:14:54;;;;;;;58.65;19.35;;;-4.40;99.90;;;;;;4152409;28;20254;-77
2023/02/07 08:16:57;;;;;;;50.65;18.30;;;-4.30;99.90;;;;;;4158852;28;20235;-77
2023/02/07 08:18:59;;;;;;;58.15;19.80;;;-4.30;99.90;;;;;;4157929;28;20260;-76
2023/02/07 08:21:01;;;;;;;59.03;19.52;;;-4.30;99.90;;;;;;4152087;28;20254;-76
2023/02/07 08:23:03;;;;;;;62.95;19.92;;;-4.30;99.90;;;;;;4154614;28;20261;-75
2023/02/07 08:25:06;;;;;;;56.65;20.38;;;-4.20;99.90;;;;;;4153897;28;20268;-76
2023/02/07 08:27:08;;;;;;;55.65;18.77;;;-4.20;99.90;;;;;;4158356;28;20274;-77
2023/02/07 08:29:11;;;;;;;57.72;20.23;;;-4.20;99.90;;;;;;4156201;28;20228;-77
2023/02/07 08:31:13;;;;;;;57.75;19.85;;;-4.20;99.90;;;;;;4153021;28;20207;-76
2023/02/07 08:33:17;;;;;;;62.53;19.55;;;-4.20;99.90;;;;;;4156137;28;20208;-77
2023/02/07 08:35:19;;;;;;;63.22;20.73;;;-4.10;99.90;;;;;;4156631;28;20247;-76
2023/02/07 08:37:22;;;;;;;67.65;20.98;;;-4.10;99.90;;;;;;4157872;28;20195;-77
2023/02/07 08:39:24;;;;;;;61.80;19.88;;;-4.10;99.90;;;;;;4152048;28;20772;-77
2023/02/07 08:41:26;;;;;;;62.63;19.17;;;-4.00;99.90;;;;;;4154482;28;20265;-76
2023/02/07 08:43:28;;;;;;;51.30;19.02;;;-4.00;99.90;;;;;;4155863;28;21077;-76
2023/02/07 08:45:30;;;;;;;55.92;19.25;;;-3.90;99.90;;;;;;4164882;28;20234;-76
2023/02/07 08:47:32;;;;;;;59.63;19.95;;;-4.00;99.90;;;;;;4156951;28;20215;-76
2023/02/07 08:49:36;;;;;;;52.45;18.73;;;-3.90;99.90;;;;;;4154139;28;20269;-77
2023/02/07 08:51:38;;;;;;;55.75;19.15;;;-3.90;99.90;;;;;;4151501;28;20208;-76
2023/02/07 08:53:40;;;;;;;54.08;19.17;;;-3.80;99.90;;;;;;4149547;28;20208;-77
2023/02/07 08:55:42;;;;;;;53.67;18.95;;;-3.80;99.90;;;;;;4152950;28;20238;-77
2023/02/07 08:57:44;;;;;;;52.47;19.30;;;-3.70;99.90;;;;;;4167787;28;20210;-76
2023/02/07 08:59:46;;;;;;;60.50;20.67;;;-3.70;99.90;;;;;;4148558;28;20232;-77
2023/02/07 09:01:48;;;;;;;58.00;20.58;;;-3.70;99.90;;;;;;4150813;28;20203;-77
2023/02/07 09:03:51;;;;;;;60.15;19.60;;;-3.60;99.90;;;;;;4155458;28;20211;-76
2023/02/07 09:05:58;;;;;;;51.03;18.75;;;-3.60;99.90;;;;;;4151344;28;20219;-76
2023/02/07 09:08:00;;;;;;;55.10;19.30;;;-3.60;99.90;;;;;;4146578;28;20599;-76
2023/02/07 09:10:05;;;;;;;64.32;20.25;;;-3.60;99.90;;;;;;4156034;28;20631;-77
2023/02/07 09:12:08;;;;;;;49.10;18.55;;;-3.40;99.90;;;;;;4152042;28;20231;-76
2023/02/07 09:14:10;;;;;;;61.30;20.33;;;-3.50;99.90;;;;;;4152095;28;20203;-77
2023/02/07 09:16:13;;;;;;;65.00;22.40;;;-3.50;99.90;;;;;;4151275;28;20208;-77
2023/02/07 09:18:15;;;;;;;70.68;22.35;;;-3.50;99.90;;;;;;4158435;28;20574;-77
2023/02/07 09:20:17;;;;;;;67.00;22.03;;;-3.50;99.90;;;;;;4149872;28;20220;-76
2023/02/07 09:22:20;;;;;;;66.57;21.67;;;-3.50;99.90;;;;;;4148299;28;20447;-76
2023/02/07 09:24:23;;;;;;;68.50;21.53;;;-3.40;99.90;;;;;;4147279;28;20227;-76
2023/02/07 09:26:26;;;;;;;62.17;21.02;;;-3.40;99.90;;;;;;4150633;28;20458;-77
2023/02/07 09:28:28;;;;;;;67.47;21.30;;;-3.50;99.90;;;;;;4153577;28;20622;-77
2023/02/07 09:30:30;;;;;;;58.70;20.08;;;-3.40;99.90;;;;;;4154774;28;20631;-77
2023/02/07 09:32:32;;;;;;;60.30;20.88;;;-3.40;99.90;;;;;;4169174;28;20218;-78
2023/02/07 09:34:35;;;;;;;63.57;21.50;;;-3.40;99.90;;;;;;4153824;28;20211;-78
2023/02/07 09:36:37;;;;;;;60.20;22.27;;;-3.30;99.90;;;;;;4156514;28;20465;-77
2023/02/07 09:38:42;;;;;;;71.10;23.47;;;-3.30;99.90;;;;;;4157452;28;20578;-77
2023/02/07 09:40:45;;;;;;;69.23;22.87;;;-3.30;99.90;;;;;;4158853;28;21023;-77
2023/02/07 09:42:55;;;;;;;64.05;22.00;;;-3.30;99.90;;;;;;4159272;28;20462;-77
2023/02/07 09:45:00;;;;;;;61.58;20.15;;;-3.10;99.90;;;;;;4158723;28;20748;-78
2023/02/07 09:47:05;;;;;;;59.10;20.77;;;-3.20;99.90;;;;;;4157304;28;20203;-77
2023/02/07 09:49:12;;;;;;;67.37;21.80;;;-3.10;99.90;;;;;;4155923;28;20772;-77
2023/02/07 09:51:19;;;;;;;61.10;21.37;;;-3.10;99.90;;;;;;4159767;28;20485;-76
2023/02/07 09:53:28;;;;;;;62.10;22.80;;;-3.00;99.90;;;;;;4157051;28;20457;-77
2023/02/07 09:55:40;;;;;;;62.40;21.80;;;-3.00;99.90;;;;;;4155675;28;21045;-76
2023/02/07 09:57:47;;;;;;;68.53;22.00;;;-3.00;99.90;;;;;;4158023;28;20533;-77
2023/02/07 09:59:54;;;;;;;62.13;21.67;;;-2.90;99.90;;;;;;4162451;28;20509;-76
2023/02/07 10:02:01;;;;;;;63.03;22.17;;;-2.90;99.90;;;;;;4163782;28;20464;-77
2023/02/07 10:04:15;;;;;;;65.87;22.20;;;-2.80;99.90;;;;;;4157965;28;20458;-77
2023/02/07 10:06:24;;;;;;;64.30;23.00;;;-2.80;99.90;;;;;;4161908;28;20458;-77
2023/02/07 10:08:27;;;;;;;64.87;21.47;;;-2.80;99.90;;;;;;4153550;28;21311;-76
2023/02/07 10:10:40;;;;;;;64.10;23.00;;;-2.70;99.90;;;;;;4159740;28;20586;-77
2023/02/07 10:12:57;;;;;;;67.73;24.00;;;-2.70;99.90;;;;;;4160034;28;20826;-77
2023/02/07 10:15:12;;;;;;;70.03;24.10;;;-2.70;99.90;;;;;;4171174;28;20512;-76
2023/02/07 10:17:36;;;;;;;66.75;21.52;;;-2.60;99.90;;;;;;4172553;28;20852;-77
2023/02/07 10:19:52;;;;;;;73.63;23.57;;;-2.60;99.90;;;;;;4153587;28;20277;-77
2023/02/07 10:22:01;;;;;;;69.23;23.27;;;-2.60;99.90;;;;;;4153070;28;20763;-76
2023/02/07 10:24:28;;;;;;;69.17;23.20;;;-2.60;99.90;;;;;;4157585;28;20454;-76
2023/02/07 10:26:36;;;;;;;64.33;22.03;;;-2.60;99.90;;;;;;4153617;28;20458;-77
2023/02/07 10:29:14;;;;;;;65.33;24.17;;;-2.50;99.90;;;;;;4154476;28;20465;-77
2023/02/07 10:31:17;;;;;;;66.67;22.07;;;-2.50;99.90;;;;;;4153629;28;20842;-77
2023/02/07 10:33:22;;;;;;;64.13;21.73;;;-2.50;99.90;;;;;;4171104;28;21141;-76
2023/02/07 10:35:31;;;;;;;63.07;20.80;;;-2.40;99.90;;;;;;4154060;28;20447;-77